sensor_id;sensor_type;location;lat;lon;timestamp;P1;durP1;ratioP1;P2;durP2;ratioP2
36185;SDS011;22228;53.222;7.446;2023-06-14T00:00:26;1.77;;;1.10;;
36185;SDS011;22228;53.222;7.446;2023-06-14T00:05:37;2.10;;;1.10;;
36185;SDS011;22228;53.222;7.446;2023-06-14T00:08:38;1.60;;;1.00;;
36185;SDS011;22228;53.222;7.446;2023-06-14T00:11:06;1.07;;;1.00;;
36185;SDS011;22228;53.222;7.446;2023-06-14T00:13:28;2.20;;;1.17;;
36185;SDS011;22228;53.222;7.446;2023-06-14T03:01:35;2.20;;;1.90;;
36185;SDS011;22228;53.222;7.446;2023-06-14T03:04:03;3.40;;;2.30;;
36185;SDS011;22228;53.222;7.446;2023-06-14T03:07:20;4.50;;;2.40;;
36185;SDS011;22228;53.222;7.446;2023-06-14T03:10:07;4.93;;;2.67;;
36185;SDS011;22228;53.222;7.446;2023-06-14T03:12:29;2.60;;;2.27;;
36185;SDS011;22228;53.222;7.446;2023-06-14T03:14:50;2.63;;;2.10;;
36185;SDS011;22228;53.222;7.446;2023-06-14T03:17:16;3.37;;;2.60;;
36185;SDS011;22228;53.222;7.446;2023-06-14T03:19:40;4.93;;;2.50;;
36185;SDS011;22228;53.222;7.446;2023-06-14T03:22:01;4.10;;;2.83;;
36185;SDS011;22228;53.222;7.446;2023-06-14T03:24:25;2.80;;;2.57;;
36185;SDS011;22228;53.222;7.446;2023-06-14T03:26:49;3.37;;;2.10;;
36185;SDS011;22228;53.222;7.446;2023-06-14T03:29:11;3.80;;;2.60;;
36185;SDS011;22228;53.222;7.446;2023-06-14T03:31:41;2.93;;;2.47;;
36185;SDS011;22228;53.222;7.446;2023-06-14T03:34:20;3.23;;;2.33;;
36185;SDS011;22228;53.222;7.446;2023-06-14T03:36:41;4.17;;;2.63;;
36185;SDS011;22228;53.222;7.446;2023-06-14T03:39:09;2.80;;;2.50;;
36185;SDS011;22228;53.222;7.446;2023-06-14T03:41:30;4.00;;;2.27;;
36185;SDS011;22228;53.222;7.446;2023-06-14T03:43:51;4.33;;;2.60;;
36185;SDS011;22228;53.222;7.446;2023-06-14T03:46:12;4.93;;;2.97;;
36185;SDS011;22228;53.222;7.446;2023-06-14T03:48:36;2.70;;;2.50;;
36185;SDS011;22228;53.222;7.446;2023-06-14T03:51:08;3.50;;;2.30;;
36185;SDS011;22228;53.222;7.446;2023-06-14T03:53:31;5.17;;;2.37;;
36185;SDS011;22228;53.222;7.446;2023-06-14T03:55:56;3.97;;;2.63;;
36185;SDS011;22228;53.222;7.446;2023-06-14T03:58:26;3.37;;;2.63;;
36185;SDS011;22228;53.222;7.446;2023-06-14T04:00:57;3.87;;;2.60;;
36185;SDS011;22228;53.222;7.446;2023-06-14T04:03:21;6.57;;;2.63;;
36185;SDS011;22228;53.222;7.446;2023-06-14T04:05:46;5.60;;;2.97;;
36185;SDS011;22228;53.222;7.446;2023-06-14T04:08:11;4.57;;;3.03;;
36185;SDS011;22228;53.222;7.446;2023-06-14T04:11:00;3.67;;;3.00;;
36185;SDS011;22228;53.222;7.446;2023-06-14T04:13:23;3.80;;;2.57;;
36185;SDS011;22228;53.222;7.446;2023-06-14T04:15:47;4.37;;;2.60;;
36185;SDS011;22228;53.222;7.446;2023-06-14T04:18:32;5.33;;;3.00;;
36185;SDS011;22228;53.222;7.446;2023-06-14T04:20:55;3.90;;;2.47;;
36185;SDS011;22228;53.222;7.446;2023-06-14T04:23:20;4.03;;;2.80;;
36185;SDS011;22228;53.222;7.446;2023-06-14T04:25:42;2.77;;;2.53;;
36185;SDS011;22228;53.222;7.446;2023-06-14T04:31:02;3.30;;;3.00;;
36185;SDS011;22228;53.222;7.446;2023-06-14T04:33:26;4.60;;;2.40;;
36185;SDS011;22228;53.222;7.446;2023-06-14T04:35:53;5.67;;;2.80;;
36185;SDS011;22228;53.222;7.446;2023-06-14T04:38:15;4.43;;;3.00;;
36185;SDS011;22228;53.222;7.446;2023-06-14T04:40:51;4.53;;;3.13;;
36185;SDS011;22228;53.222;7.446;2023-06-14T04:43:15;4.07;;;2.93;;
36185;SDS011;22228;53.222;7.446;2023-06-14T04:46:02;3.93;;;3.17;;
36185;SDS011;22228;53.222;7.446;2023-06-14T04:48:25;3.10;;;2.60;;
36185;SDS011;22228;53.222;7.446;2023-06-14T04:53:35;6.37;;;2.90;;
36185;SDS011;22228;53.222;7.446;2023-06-14T04:56:26;4.10;;;3.07;;
36185;SDS011;22228;53.222;7.446;2023-06-14T04:58:48;3.03;;;2.50;;
36185;SDS011;22228;53.222;7.446;2023-06-14T05:04:26;3.00;;;2.80;;
36185;SDS011;22228;53.222;7.446;2023-06-14T05:06:49;3.97;;;3.00;;
36185;SDS011;22228;53.222;7.446;2023-06-14T05:09:35;4.67;;;3.03;;
36185;SDS011;22228;53.222;7.446;2023-06-14T05:11:57;5.03;;;3.10;;
36185;SDS011;22228;53.222;7.446;2023-06-14T05:14:26;3.30;;;2.80;;
36185;SDS011;22228;53.222;7.446;2023-06-14T05:16:50;4.37;;;2.97;;
36185;SDS011;22228;53.222;7.446;2023-06-14T05:19:40;10.13;;;3.30;;
36185;SDS011;22228;53.222;7.446;2023-06-14T05:22:01;9.57;;;3.13;;
36185;SDS011;22228;53.222;7.446;2023-06-14T05:27:13;3.37;;;2.83;;
36185;SDS011;22228;53.222;7.446;2023-06-14T05:29:41;4.27;;;3.10;;
36185;SDS011;22228;53.222;7.446;2023-06-14T05:32:04;4.90;;;2.70;;
36185;SDS011;22228;53.222;7.446;2023-06-14T05:34:25;5.30;;;3.07;;
36185;SDS011;22228;53.222;7.446;2023-06-14T05:36:47;3.80;;;2.73;;
36185;SDS011;22228;53.222;7.446;2023-06-14T05:39:10;2.70;;;2.50;;
36185;SDS011;22228;53.222;7.446;2023-06-14T05:41:31;3.13;;;2.53;;
36185;SDS011;22228;53.222;7.446;2023-06-14T05:44:19;5.13;;;3.00;;
36185;SDS011;22228;53.222;7.446;2023-06-14T05:46:41;6.10;;;3.43;;
36185;SDS011;22228;53.222;7.446;2023-06-14T05:52:35;5.23;;;3.00;;
36185;SDS011;22228;53.222;7.446;2023-06-14T05:54:59;9.17;;;3.47;;
36185;SDS011;22228;53.222;7.446;2023-06-14T05:57:21;5.13;;;3.00;;
36185;SDS011;22228;53.222;7.446;2023-06-14T05:59:52;6.60;;;2.73;;
36185;SDS011;22228;53.222;7.446;2023-06-14T06:02:38;5.93;;;3.00;;
36185;SDS011;22228;53.222;7.446;2023-06-14T06:05:06;3.50;;;2.30;;
36185;SDS011;22228;53.222;7.446;2023-06-14T06:07:28;6.53;;;3.37;;
36185;SDS011;22228;53.222;7.446;2023-06-14T06:10:01;2.77;;;2.50;;
36185;SDS011;22228;53.222;7.446;2023-06-14T06:12:25;15.93;;;4.47;;
36185;SDS011;22228;53.222;7.446;2023-06-14T06:14:45;23.20;;;5.57;;
36185;SDS011;22228;53.222;7.446;2023-06-14T06:17:32;23.87;;;5.07;;
36185;SDS011;22228;53.222;7.446;2023-06-14T06:20:17;25.93;;;6.13;;
36185;SDS011;22228;53.222;7.446;2023-06-14T06:22:47;21.67;;;5.60;;
36185;SDS011;22228;53.222;7.446;2023-06-14T06:25:09;12.60;;;3.80;;
36185;SDS011;22228;53.222;7.446;2023-06-14T06:27:30;2.90;;;2.40;;
36185;SDS011;22228;53.222;7.446;2023-06-14T06:29:51;7.67;;;2.87;;
36185;SDS011;22228;53.222;7.446;2023-06-14T06:32:16;53.63;;;10.60;;
36185;SDS011;22228;53.222;7.446;2023-06-14T06:34:38;20.87;;;4.90;;
36185;SDS011;22228;53.222;7.446;2023-06-14T06:37:02;6.23;;;3.00;;
36185;SDS011;22228;53.222;7.446;2023-06-14T06:39:24;49.77;;;8.90;;
36185;SDS011;22228;53.222;7.446;2023-06-14T06:41:54;51.77;;;11.47;;
36185;SDS011;22228;53.222;7.446;2023-06-14T06:44:26;28.93;;;6.33;;
36185;SDS011;22228;53.222;7.446;2023-06-14T06:46:49;7.10;;;3.17;;
36185;SDS011;22228;53.222;7.446;2023-06-14T06:49:10;4.40;;;2.23;;
36185;SDS011;22228;53.222;7.446;2023-06-14T06:52:15;15.83;;;3.80;;
36185;SDS011;22228;53.222;7.446;2023-06-14T06:54:37;4.73;;;2.30;;
36185;SDS011;22228;53.222;7.446;2023-06-14T06:57:00;5.33;;;2.23;;
36185;SDS011;22228;53.222;7.446;2023-06-14T06:59:28;3.63;;;2.33;;
36185;SDS011;22228;53.222;7.446;2023-06-14T07:01:52;4.70;;;2.40;;
36185;SDS011;22228;53.222;7.446;2023-06-14T07:04:12;2.37;;;2.17;;
36185;SDS011;22228;53.222;7.446;2023-06-14T07:06:34;5.90;;;2.87;;
36185;SDS011;22228;53.222;7.446;2023-06-14T07:09:01;4.37;;;2.33;;
36185;SDS011;22228;53.222;7.446;2023-06-14T07:11:24;4.70;;;2.03;;
36185;SDS011;22228;53.222;7.446;2023-06-14T07:13:45;3.47;;;2.20;;
36185;SDS011;22228;53.222;7.446;2023-06-14T07:16:06;2.57;;;2.20;;
36185;SDS011;22228;53.222;7.446;2023-06-14T07:18:28;3.43;;;1.90;;
36185;SDS011;22228;53.222;7.446;2023-06-14T07:20:53;2.80;;;2.20;;
36185;SDS011;22228;53.222;7.446;2023-06-14T07:23:14;3.93;;;1.87;;
36185;SDS011;22228;53.222;7.446;2023-06-14T07:26:03;3.60;;;2.03;;
36185;SDS011;22228;53.222;7.446;2023-06-14T07:28:30;3.93;;;2.50;;
36185;SDS011;22228;53.222;7.446;2023-06-14T07:31:15;3.83;;;1.87;;
36185;SDS011;22228;53.222;7.446;2023-06-14T07:33:40;1.93;;;1.53;;
36185;SDS011;22228;53.222;7.446;2023-06-14T07:36:01;3.20;;;1.60;;
36185;SDS011;22228;53.222;7.446;2023-06-14T07:38:28;4.33;;;1.87;;
36185;SDS011;22228;53.222;7.446;2023-06-14T07:40:49;5.30;;;2.00;;
36185;SDS011;22228;53.222;7.446;2023-06-14T07:43:15;4.43;;;1.77;;
36185;SDS011;22228;53.222;7.446;2023-06-14T07:45:40;2.33;;;1.53;;
36185;SDS011;22228;53.222;7.446;2023-06-14T07:51:12;3.53;;;1.90;;
36185;SDS011;22228;53.222;7.446;2023-06-14T07:53:33;3.30;;;1.90;;
36185;SDS011;22228;53.222;7.446;2023-06-14T07:56:25;4.60;;;2.30;;
36185;SDS011;22228;53.222;7.446;2023-06-14T07:58:53;1.70;;;1.60;;
36185;SDS011;22228;53.222;7.446;2023-06-14T08:01:39;8.07;;;1.90;;
36185;SDS011;22228;53.222;7.446;2023-06-14T08:04:13;2.90;;;1.63;;
36185;SDS011;22228;53.222;7.446;2023-06-14T08:06:37;3.10;;;1.50;;
36185;SDS011;22228;53.222;7.446;2023-06-14T08:08:58;4.43;;;1.50;;
36185;SDS011;22228;53.222;7.446;2023-06-14T08:11:43;3.73;;;1.60;;
36185;SDS011;22228;53.222;7.446;2023-06-14T08:17:05;3.87;;;1.80;;
36185;SDS011;22228;53.222;7.446;2023-06-14T08:19:26;2.40;;;1.70;;
36185;SDS011;22228;53.222;7.446;2023-06-14T08:21:53;3.73;;;1.70;;
36185;SDS011;22228;53.222;7.446;2023-06-14T08:24:15;2.90;;;1.50;;
36185;SDS011;22228;53.222;7.446;2023-06-14T08:26:36;4.77;;;1.60;;
36185;SDS011;22228;53.222;7.446;2023-06-14T08:29:00;4.77;;;1.60;;
36185;SDS011;22228;53.222;7.446;2023-06-14T08:31:22;2.20;;;1.80;;
36185;SDS011;22228;53.222;7.446;2023-06-14T08:33:44;3.30;;;1.50;;
36185;SDS011;22228;53.222;7.446;2023-06-14T08:36:06;6.80;;;1.90;;
36185;SDS011;22228;53.222;7.446;2023-06-14T08:38:28;2.77;;;1.33;;
36185;SDS011;22228;53.222;7.446;2023-06-14T08:41:19;2.07;;;1.37;;
36185;SDS011;22228;53.222;7.446;2023-06-14T08:43:42;4.13;;;1.80;;
36185;SDS011;22228;53.222;7.446;2023-06-14T08:48:53;3.13;;;1.40;;
36185;SDS011;22228;53.222;7.446;2023-06-14T08:51:18;2.47;;;1.67;;
36185;SDS011;22228;53.222;7.446;2023-06-14T08:53:43;2.77;;;1.40;;
36185;SDS011;22228;53.222;7.446;2023-06-14T08:56:04;3.50;;;1.50;;
36185;SDS011;22228;53.222;7.446;2023-06-14T08:58:27;1.67;;;1.57;;
36185;SDS011;22228;53.222;7.446;2023-06-14T09:00:52;4.27;;;1.70;;
36185;SDS011;22228;53.222;7.446;2023-06-14T09:03:14;1.63;;;1.40;;
36185;SDS011;22228;53.222;7.446;2023-06-14T09:05:36;4.83;;;1.70;;
36185;SDS011;22228;53.222;7.446;2023-06-14T09:08:02;3.50;;;1.33;;
36185;SDS011;22228;53.222;7.446;2023-06-14T09:10:25;3.47;;;1.47;;
36185;SDS011;22228;53.222;7.446;2023-06-14T09:12:50;2.37;;;1.43;;
36185;SDS011;22228;53.222;7.446;2023-06-14T09:15:14;4.27;;;1.30;;
36185;SDS011;22228;53.222;7.446;2023-06-14T09:17:42;1.87;;;1.20;;
36185;SDS011;22228;53.222;7.446;2023-06-14T09:20:11;1.73;;;1.37;;
36185;SDS011;22228;53.222;7.446;2023-06-14T09:25:31;3.20;;;1.60;;
36185;SDS011;22228;53.222;7.446;2023-06-14T09:28:26;3.10;;;1.60;;
36185;SDS011;22228;53.222;7.446;2023-06-14T09:33:38;1.47;;;1.20;;
36185;SDS011;22228;53.222;7.446;2023-06-14T09:36:28;2.73;;;1.20;;
36185;SDS011;22228;53.222;7.446;2023-06-14T09:39:21;1.70;;;1.10;;
36185;SDS011;22228;53.222;7.446;2023-06-14T09:41:43;3.70;;;1.43;;
36185;SDS011;22228;53.222;7.446;2023-06-14T09:44:05;6.50;;;1.40;;
36185;SDS011;22228;53.222;7.446;2023-06-14T09:46:26;2.90;;;1.20;;
36185;SDS011;22228;53.222;7.446;2023-06-14T09:48:48;2.57;;;1.23;;
36185;SDS011;22228;53.222;7.446;2023-06-14T09:51:15;1.70;;;1.10;;
36185;SDS011;22228;53.222;7.446;2023-06-14T09:53:40;2.10;;;1.10;;
36185;SDS011;22228;53.222;7.446;2023-06-14T09:56:02;2.20;;;1.20;;
36185;SDS011;22228;53.222;7.446;2023-06-14T09:58:26;3.70;;;1.17;;
36185;SDS011;22228;53.222;7.446;2023-06-14T10:00:47;3.77;;;1.20;;
36185;SDS011;22228;53.222;7.446;2023-06-14T10:03:12;4.23;;;1.00;;
36185;SDS011;22228;53.222;7.446;2023-06-14T10:08:48;5.07;;;4.17;;
36185;SDS011;22228;53.222;7.446;2023-06-14T10:16:58;3.53;;;1.43;;
36185;SDS011;22228;53.222;7.446;2023-06-14T10:19:24;4.57;;;1.20;;
36185;SDS011;22228;53.222;7.446;2023-06-14T10:21:55;1.20;;;0.90;;
36185;SDS011;22228;53.222;7.446;2023-06-14T10:24:20;1.57;;;1.13;;
36185;SDS011;22228;53.222;7.446;2023-06-14T10:26:50;1.93;;;1.10;;
36185;SDS011;22228;53.222;7.446;2023-06-14T10:29:12;3.23;;;1.10;;
36185;SDS011;22228;53.222;7.446;2023-06-14T10:34:22;3.57;;;1.00;;
36185;SDS011;22228;53.222;7.446;2023-06-14T10:37:10;2.80;;;1.20;;
36185;SDS011;22228;53.222;7.446;2023-06-14T10:39:37;1.30;;;1.20;;
36185;SDS011;22228;53.222;7.446;2023-06-14T10:42:01;4.57;;;1.10;;
36185;SDS011;22228;53.222;7.446;2023-06-14T10:44:30;3.47;;;1.30;;
36185;SDS011;22228;53.222;7.446;2023-06-14T10:46:53;2.10;;;0.90;;
36185;SDS011;22228;53.222;7.446;2023-06-14T10:49:15;3.27;;;1.10;;
36185;SDS011;22228;53.222;7.446;2023-06-14T10:54:25;1.63;;;0.70;;
36185;SDS011;22228;53.222;7.446;2023-06-14T10:56:49;3.40;;;0.90;;
36185;SDS011;22228;53.222;7.446;2023-06-14T11:05:48;3.07;;;0.90;;
36185;SDS011;22228;53.222;7.446;2023-06-14T11:08:15;1.03;;;0.80;;
36185;SDS011;22228;53.222;7.446;2023-06-14T11:13:35;1.67;;;0.80;;
36185;SDS011;22228;53.222;7.446;2023-06-14T11:15:59;2.20;;;0.93;;
36185;SDS011;22228;53.222;7.446;2023-06-14T11:18:22;3.57;;;0.93;;
36185;SDS011;22228;53.222;7.446;2023-06-14T11:20:45;1.00;;;1.00;;
36185;SDS011;22228;53.222;7.446;2023-06-14T11:23:07;1.73;;;1.00;;
36185;SDS011;22228;53.222;7.446;2023-06-14T11:25:52;3.20;;;0.90;;
36185;SDS011;22228;53.222;7.446;2023-06-14T11:28:13;3.00;;;0.90;;
36185;SDS011;22228;53.222;7.446;2023-06-14T11:30:36;2.00;;;0.97;;
36185;SDS011;22228;53.222;7.446;2023-06-14T11:33:23;1.10;;;0.90;;
36185;SDS011;22228;53.222;7.446;2023-06-14T11:38:34;4.63;;;1.20;;
36185;SDS011;22228;53.222;7.446;2023-06-14T11:41:24;3.20;;;1.00;;
36185;SDS011;22228;53.222;7.446;2023-06-14T11:44:10;2.90;;;0.97;;
36185;SDS011;22228;53.222;7.446;2023-06-14T11:46:58;4.17;;;0.93;;
36185;SDS011;22228;53.222;7.446;2023-06-14T11:49:23;4.67;;;1.00;;
36185;SDS011;22228;53.222;7.446;2023-06-14T11:51:53;4.27;;;0.97;;
36185;SDS011;22228;53.222;7.446;2023-06-14T11:54:15;3.23;;;1.30;;
36185;SDS011;22228;53.222;7.446;2023-06-14T11:56:42;1.50;;;0.90;;
36185;SDS011;22228;53.222;7.446;2023-06-14T11:59:04;2.00;;;0.90;;
36185;SDS011;22228;53.222;7.446;2023-06-14T12:01:26;2.13;;;1.17;;
36185;SDS011;22228;53.222;7.446;2023-06-14T12:03:49;2.70;;;1.10;;
36185;SDS011;22228;53.222;7.446;2023-06-14T12:06:10;4.57;;;1.00;;
36185;SDS011;22228;53.222;7.446;2023-06-14T12:08:34;4.10;;;1.13;;
36185;SDS011;22228;53.222;7.446;2023-06-14T12:11:00;2.17;;;1.00;;
36185;SDS011;22228;53.222;7.446;2023-06-14T12:13:26;1.27;;;1.17;;
36185;SDS011;22228;53.222;7.446;2023-06-14T12:16:11;3.50;;;1.10;;
36185;SDS011;22228;53.222;7.446;2023-06-14T12:18:33;3.70;;;1.20;;
36185;SDS011;22228;53.222;7.446;2023-06-14T12:21:22;2.10;;;1.10;;
36185;SDS011;22228;53.222;7.446;2023-06-14T12:23:48;1.77;;;1.00;;
36185;SDS011;22228;53.222;7.446;2023-06-14T12:26:14;4.87;;;1.20;;
36185;SDS011;22228;53.222;7.446;2023-06-14T12:28:36;3.23;;;1.10;;
36185;SDS011;22228;53.222;7.446;2023-06-14T12:30:57;1.50;;;1.00;;
36185;SDS011;22228;53.222;7.446;2023-06-14T12:33:18;2.60;;;1.20;;
36185;SDS011;22228;53.222;7.446;2023-06-14T12:36:03;3.27;;;1.20;;
36185;SDS011;22228;53.222;7.446;2023-06-14T12:38:26;2.50;;;1.10;;
36185;SDS011;22228;53.222;7.446;2023-06-14T12:41:18;0.80;;;0.80;;
36185;SDS011;22228;53.222;7.446;2023-06-14T12:44:05;3.67;;;1.90;;
36185;SDS011;22228;53.222;7.446;2023-06-14T12:49:13;4.00;;;1.20;;
36185;SDS011;22228;53.222;7.446;2023-06-14T12:51:34;2.03;;;1.10;;
36185;SDS011;22228;53.222;7.446;2023-06-14T12:53:56;3.90;;;1.10;;
36185;SDS011;22228;53.222;7.446;2023-06-14T12:56:18;1.53;;;1.00;;
36185;SDS011;22228;53.222;7.446;2023-06-14T12:59:05;1.87;;;1.20;;
36185;SDS011;22228;53.222;7.446;2023-06-14T13:01:27;6.03;;;1.37;;
36185;SDS011;22228;53.222;7.446;2023-06-14T13:03:48;3.60;;;1.00;;
36185;SDS011;22228;53.222;7.446;2023-06-14T13:06:39;3.13;;;1.10;;
36185;SDS011;22228;53.222;7.446;2023-06-14T13:09:26;4.00;;;1.30;;
36185;SDS011;22228;53.222;7.446;2023-06-14T13:11:47;2.83;;;1.20;;
36185;SDS011;22228;53.222;7.446;2023-06-14T13:14:08;2.03;;;1.03;;
36185;SDS011;22228;53.222;7.446;2023-06-14T13:16:29;2.90;;;1.20;;
36185;SDS011;22228;53.222;7.446;2023-06-14T13:18:56;3.87;;;1.03;;
36185;SDS011;22228;53.222;7.446;2023-06-14T13:21:18;2.87;;;1.27;;
36185;SDS011;22228;53.222;7.446;2023-06-14T13:23:38;4.40;;;1.30;;
36185;SDS011;22228;53.222;7.446;2023-06-14T13:26:05;4.13;;;1.00;;
36185;SDS011;22228;53.222;7.446;2023-06-14T13:28:27;2.00;;;1.10;;
36185;SDS011;22228;53.222;7.446;2023-06-14T13:30:49;2.73;;;1.00;;
36185;SDS011;22228;53.222;7.446;2023-06-14T13:33:10;3.87;;;2.50;;
36185;SDS011;22228;53.222;7.446;2023-06-14T13:35:31;2.97;;;1.17;;
36185;SDS011;22228;53.222;7.446;2023-06-14T13:37:52;4.83;;;1.60;;
36185;SDS011;22228;53.222;7.446;2023-06-14T13:40:12;2.90;;;1.20;;
36185;SDS011;22228;53.222;7.446;2023-06-14T13:42:34;4.90;;;1.20;;
36185;SDS011;22228;53.222;7.446;2023-06-14T13:44:55;4.10;;;1.00;;
36185;SDS011;22228;53.222;7.446;2023-06-14T13:47:41;4.13;;;1.33;;
36185;SDS011;22228;53.222;7.446;2023-06-14T13:50:08;5.57;;;1.40;;
36185;SDS011;22228;53.222;7.446;2023-06-14T13:52:29;5.40;;;1.13;;
36185;SDS011;22228;53.222;7.446;2023-06-14T13:54:50;2.83;;;1.20;;
36185;SDS011;22228;53.222;7.446;2023-06-14T13:57:16;1.67;;;1.20;;
36185;SDS011;22228;53.222;7.446;2023-06-14T13:59:39;3.43;;;1.20;;
36185;SDS011;22228;53.222;7.446;2023-06-14T14:02:07;1.27;;;1.20;;
36185;SDS011;22228;53.222;7.446;2023-06-14T14:04:28;3.27;;;1.10;;
36185;SDS011;22228;53.222;7.446;2023-06-14T14:06:54;1.20;;;1.10;;
36185;SDS011;22228;53.222;7.446;2023-06-14T14:09:21;5.23;;;1.13;;
36185;SDS011;22228;53.222;7.446;2023-06-14T14:11:43;1.53;;;1.00;;
36185;SDS011;22228;53.222;7.446;2023-06-14T14:14:05;3.13;;;1.00;;
36185;SDS011;22228;53.222;7.446;2023-06-14T14:16:27;1.40;;;1.27;;
36185;SDS011;22228;53.222;7.446;2023-06-14T14:18:47;3.50;;;1.20;;
36185;SDS011;22228;53.222;7.446;2023-06-14T14:21:08;1.57;;;1.30;;
36185;SDS011;22228;53.222;7.446;2023-06-14T14:23:31;1.47;;;1.37;;
36185;SDS011;22228;53.222;7.446;2023-06-14T14:25:51;3.73;;;1.40;;
36185;SDS011;22228;53.222;7.446;2023-06-14T14:28:12;2.70;;;1.20;;
36185;SDS011;22228;53.222;7.446;2023-06-14T14:30:36;2.45;;;1.20;;
36185;SDS011;22228;53.222;7.446;2023-06-14T14:33:00;2.75;;;1.05;;
36185;SDS011;22228;53.222;7.446;2023-06-14T14:35:20;4.13;;;1.10;;
36185;SDS011;22228;53.222;7.446;2023-06-14T14:40:28;1.57;;;1.27;;
36185;SDS011;22228;53.222;7.446;2023-06-14T14:42:55;1.90;;;1.47;;
36185;SDS011;22228;53.222;7.446;2023-06-14T14:45:16;2.63;;;1.23;;
36185;SDS011;22228;53.222;7.446;2023-06-14T14:47:37;3.47;;;1.27;;
36185;SDS011;22228;53.222;7.446;2023-06-14T14:50:06;2.90;;;1.10;;
36185;SDS011;22228;53.222;7.446;2023-06-14T14:55:18;6.73;;;1.50;;
36185;SDS011;22228;53.222;7.446;2023-06-14T14:58:04;2.73;;;1.40;;
36185;SDS011;22228;53.222;7.446;2023-06-14T15:00:27;3.27;;;1.20;;
36185;SDS011;22228;53.222;7.446;2023-06-14T15:02:48;3.60;;;1.40;;
36185;SDS011;22228;53.222;7.446;2023-06-14T15:05:10;2.00;;;1.43;;
36185;SDS011;22228;53.222;7.446;2023-06-14T15:07:54;1.10;;;1.10;;
36185;SDS011;22228;53.222;7.446;2023-06-14T15:10:16;2.07;;;1.20;;
36185;SDS011;22228;53.222;7.446;2023-06-14T15:12:36;3.43;;;1.50;;
36185;SDS011;22228;53.222;7.446;2023-06-14T15:15:01;2.03;;;1.30;;
36185;SDS011;22228;53.222;7.446;2023-06-14T15:17:21;2.53;;;1.33;;
36185;SDS011;22228;53.222;7.446;2023-06-14T15:19:43;2.30;;;1.20;;
36185;SDS011;22228;53.222;7.446;2023-06-14T15:22:31;2.10;;;1.40;;
36185;SDS011;22228;53.222;7.446;2023-06-14T15:24:53;2.23;;;1.40;;
36185;SDS011;22228;53.222;7.446;2023-06-14T15:27:14;2.23;;;1.30;;
36185;SDS011;22228;53.222;7.446;2023-06-14T15:29:35;4.30;;;1.37;;
36185;SDS011;22228;53.222;7.446;2023-06-14T15:31:55;3.40;;;1.30;;
36185;SDS011;22228;53.222;7.446;2023-06-14T15:34:41;2.90;;;1.50;;
36185;SDS011;22228;53.222;7.446;2023-06-14T15:37:31;3.92;;;1.58;;
36185;SDS011;22228;53.222;7.446;2023-06-14T15:39:51;1.27;;;1.17;;
36185;SDS011;22228;53.222;7.446;2023-06-14T15:42:12;3.67;;;1.30;;
36185;SDS011;22228;53.222;7.446;2023-06-14T15:44:32;2.20;;;1.43;;
36185;SDS011;22228;53.222;7.446;2023-06-14T15:47:26;2.60;;;1.20;;
36185;SDS011;22228;53.222;7.446;2023-06-14T15:52:45;2.67;;;1.33;;
36185;SDS011;22228;53.222;7.446;2023-06-14T15:55:11;3.93;;;1.37;;
36185;SDS011;22228;53.222;7.446;2023-06-14T15:57:58;2.30;;;1.43;;
36185;SDS011;22228;53.222;7.446;2023-06-14T16:00:19;2.57;;;1.40;;
36185;SDS011;22228;53.222;7.446;2023-06-14T16:02:40;1.80;;;1.37;;
36185;SDS011;22228;53.222;7.446;2023-06-14T16:05:01;1.40;;;1.30;;
36185;SDS011;22228;53.222;7.446;2023-06-14T16:07:49;4.90;;;1.30;;
36185;SDS011;22228;53.222;7.446;2023-06-14T16:10:10;3.53;;;1.50;;
36185;SDS011;22228;53.222;7.446;2023-06-14T16:12:36;3.28;;;1.30;;
36185;SDS011;22228;53.222;7.446;2023-06-14T16:15:03;3.47;;;1.50;;
36185;SDS011;22228;53.222;7.446;2023-06-14T16:17:29;1.95;;;1.40;;
36185;SDS011;22228;53.222;7.446;2023-06-14T16:19:55;2.35;;;1.50;;
36185;SDS011;22228;53.222;7.446;2023-06-14T16:22:16;4.22;;;1.30;;
36185;SDS011;22228;53.222;7.446;2023-06-14T16:24:38;4.22;;;1.52;;
36185;SDS011;22228;53.222;7.446;2023-06-14T16:27:03;2.70;;;1.40;;
36185;SDS011;22228;53.222;7.446;2023-06-14T16:30:03;4.40;;;1.50;;
36185;SDS011;22228;53.222;7.446;2023-06-14T16:32:24;4.20;;;1.33;;
36185;SDS011;22228;53.222;7.446;2023-06-14T16:34:46;2.97;;;1.63;;
36185;SDS011;22228;53.222;7.446;2023-06-14T16:37:07;3.70;;;1.60;;
36185;SDS011;22228;53.222;7.446;2023-06-14T16:39:28;4.33;;;1.60;;
36185;SDS011;22228;53.222;7.446;2023-06-14T16:41:53;1.90;;;1.57;;
36185;SDS011;22228;53.222;7.446;2023-06-14T16:44:14;3.10;;;1.60;;
36185;SDS011;22228;53.222;7.446;2023-06-14T16:46:35;2.57;;;1.50;;
36185;SDS011;22228;53.222;7.446;2023-06-14T16:48:56;3.53;;;1.50;;
36185;SDS011;22228;53.222;7.446;2023-06-14T16:51:17;4.33;;;2.10;;
36185;SDS011;22228;53.222;7.446;2023-06-14T16:53:42;2.50;;;1.30;;
36185;SDS011;22228;53.222;7.446;2023-06-14T16:56:09;1.43;;;1.33;;
36185;SDS011;22228;53.222;7.446;2023-06-14T16:58:31;2.27;;;1.20;;
36185;SDS011;22228;53.222;7.446;2023-06-14T17:00:56;4.67;;;1.43;;
36185;SDS011;22228;53.222;7.446;2023-06-14T17:03:16;3.57;;;1.30;;
36185;SDS011;22228;53.222;7.446;2023-06-14T17:05:39;4.20;;;1.50;;
36185;SDS011;22228;53.222;7.446;2023-06-14T17:11:01;4.57;;;1.80;;
36185;SDS011;22228;53.222;7.446;2023-06-14T17:13:23;6.07;;;1.87;;
36185;SDS011;22228;53.222;7.446;2023-06-14T17:15:50;4.70;;;1.83;;
36185;SDS011;22228;53.222;7.446;2023-06-14T17:18:12;3.70;;;1.83;;
36185;SDS011;22228;53.222;7.446;2023-06-14T17:20:32;7.13;;;1.87;;
36185;SDS011;22228;53.222;7.446;2023-06-14T17:22:58;5.17;;;2.40;;
36185;SDS011;22228;53.222;7.446;2023-06-14T17:25:20;2.60;;;2.10;;
36185;SDS011;22228;53.222;7.446;2023-06-14T17:27:41;4.20;;;1.60;;
36185;SDS011;22228;53.222;7.446;2023-06-14T17:30:05;3.43;;;2.00;;
36185;SDS011;22228;53.222;7.446;2023-06-14T17:32:29;7.33;;;1.90;;
36185;SDS011;22228;53.222;7.446;2023-06-14T17:34:50;3.33;;;1.60;;
36185;SDS011;22228;53.222;7.446;2023-06-14T17:37:12;3.53;;;1.70;;
36185;SDS011;22228;53.222;7.446;2023-06-14T17:39:32;4.17;;;1.63;;
36185;SDS011;22228;53.222;7.446;2023-06-14T17:41:56;3.50;;;1.70;;
36185;SDS011;22228;53.222;7.446;2023-06-14T17:44:19;2.70;;;1.60;;
36185;SDS011;22228;53.222;7.446;2023-06-14T17:46:40;2.70;;;1.50;;
36185;SDS011;22228;53.222;7.446;2023-06-14T17:49:34;4.57;;;2.00;;
36185;SDS011;22228;53.222;7.446;2023-06-14T17:55:07;2.70;;;1.77;;
36185;SDS011;22228;53.222;7.446;2023-06-14T17:57:28;4.43;;;1.73;;
36185;SDS011;22228;53.222;7.446;2023-06-14T17:59:50;5.37;;;1.77;;
36185;SDS011;22228;53.222;7.446;2023-06-14T18:02:34;3.57;;;1.90;;
36185;SDS011;22228;53.222;7.446;2023-06-14T18:05:03;2.40;;;1.47;;
36185;SDS011;22228;53.222;7.446;2023-06-14T18:07:30;1.73;;;1.60;;
36185;SDS011;22228;53.222;7.446;2023-06-14T18:10:16;2.63;;;1.83;;
36185;SDS011;22228;53.222;7.446;2023-06-14T18:12:38;2.37;;;1.60;;
36185;SDS011;22228;53.222;7.446;2023-06-14T18:15:03;4.40;;;1.70;;
36185;SDS011;22228;53.222;7.446;2023-06-14T18:17:24;4.27;;;1.50;;
36185;SDS011;22228;53.222;7.446;2023-06-14T18:20:17;3.20;;;1.80;;
36185;SDS011;22228;53.222;7.446;2023-06-14T18:22:37;4.40;;;2.33;;
36185;SDS011;22228;53.222;7.446;2023-06-14T18:25:05;6.27;;;1.43;;
36185;SDS011;22228;53.222;7.446;2023-06-14T18:27:51;2.13;;;1.40;;
36185;SDS011;22228;53.222;7.446;2023-06-14T18:30:12;6.27;;;1.47;;
36185;SDS011;22228;53.222;7.446;2023-06-14T18:32:34;3.13;;;2.03;;
36185;SDS011;22228;53.222;7.446;2023-06-14T18:34:58;4.60;;;1.70;;
36185;SDS011;22228;53.222;7.446;2023-06-14T18:37:23;2.60;;;1.57;;
36185;SDS011;22228;53.222;7.446;2023-06-14T18:39:52;5.17;;;1.73;;
36185;SDS011;22228;53.222;7.446;2023-06-14T18:42:13;6.03;;;1.80;;
36185;SDS011;22228;53.222;7.446;2023-06-14T18:45:00;4.10;;;1.70;;
36185;SDS011;22228;53.222;7.446;2023-06-14T18:47:20;3.77;;;3.37;;
36185;SDS011;22228;53.222;7.446;2023-06-14T18:50:06;5.00;;;2.20;;